Winfield, Kansas
Current Conditions -  °F | °C
As of 11:54 PM on Saturday 25 Oct 2014 (Local Time) from KWLD Reporting Station
Clear Clear  
Wind Chill: 68°   Ceiling: Unl
Heat Index: 68°   Visibility: 10mi
Dew Point: 60°   Wind: 9mph
Humidity: 76%   Direction: 170°S
Pressure: 29.96"   Gusts: NA
Location:  37.24°N, 97°W
Report Text: KWLD 260454Z AUTO 17008KT 10SM CLR 20/16 A2996 RMK AO2 SLP134 T02000156
Loading
Personal Weather Stations






























Interactive Weather Map New forecast layout! Learn more

10-Day Weather Forecast

Advertisements
Track Severe Weather on mobile